首页
METAR-TAF:

METAR-TAF

机场 :

哈茨菲尔德-杰克逊亚特兰大国际机场

亚特兰大, 喬治亞, 美国

纬度: 33-38-25N, 经度: 084-25-37W, 海拔: 313米

当前天气观测

该预报发布于9分钟前的10:52 UTC
风速7节,风向
温度 21°C
湿度 83%
气压 1018 hPa
能見度: 16.1公里
少量云层高于900英尺
多云层高于3600英尺
多云层高于4700英尺
阴天层高于15000英尺

METAR: KATL 261052Z 10007KT 10SM FEW009 BKN036 BKN047 OVC150 21/18 A3006 RMK AO2 SLP171 BINOVC T02060178

时间: 07:01 (11:01 UTC)

预报

该预报发布于1小时和20分钟前的09:41 UTC
预报有效从26日的 10点(UTC)到 27日的 12点(UTC)
风速10节,风向
能見度: 10公里
多云层高于700英尺
多云层高于2000英尺
从 26日的 1600点(UTC)
风速11节,风向
能見度: 10公里
多云层高于2500英尺
小阵雨
几率 30%
从 26日的 20点(UTC)到 26日的 24点(UTC)
能見度: 6.4公里
多云层高于1500英尺
阵雨
从 27日的 0100点(UTC)
风速10节,风向
能見度: 10公里
多云层高于1800英尺
附近有阵雨
从 27日的 0500点(UTC)
风速9节,风向
能見度: 10公里
多云层高于900英尺
从 27日的 1100点(UTC)
风速8节,风向
能見度: 10公里
阴天层高于700英尺

TAF: KATL 260941Z 2610/2712 10010KT P6SM BKN007 BKN020 FM261600 10011KT P6SM -SHRA BKN025 PROB30 2620/2624 4SM SHRA BKN015 FM270100 10010KT P6SM VCSH BKN018 FM270500 09009KT P6SM BKN009 FM271100 08008KT P6SM OVC007

超过4000个机场的气象观测和天气预报(METAR&TAF报告)。

可查询的气象台以黄色和红色小点在地图上表示。

将鼠标移到小点上方,可查看气象台名称。

然后点击查看天气观测和预报。

如需切换地图:点击带黑十字的绿色按钮放大地图;点击带横线的绿色按钮缩小地图;或者点击绿色箭头查看邻近地区的地图。


METAR-TAF: